Time;durP1;ratioP1;P1;durP2;ratioP2;P2;SDS_P1;SDS_P2;PMS_P1;PMS_P2;Temp;Humidity;BMP_temperature;BMP_pressure;BME280_temperature;BME280_humidity;BME280_pressure;Samples;Min_cycle;Max_cycle;Signal;HPM_P1;HPM_P2
2024/01/18 00:01:33;;;;;;;4.32;0.60;;;0.30;91.00;;;;;;5015820;28;20064;-79
2024/01/18 00:04:00;;;;;;;1.42;0.47;;;0.40;91.10;;;;;;5015543;28;20387;-80
2024/01/18 00:06:26;;;;;;;2.58;0.40;;;0.40;91.20;;;;;;5032037;28;20041;-79
2024/01/18 00:08:51;;;;;;;2.10;0.70;;;0.40;91.20;;;;;;5031697;28;20424;-79
2024/01/18 00:11:17;;;;;;;2.65;0.50;;;0.40;91.50;;;;;;5032037;28;20041;-80
2024/01/18 00:13:44;;;;;;;3.42;1.05;;;0.40;91.80;;;;;;5012070;28;20482;-79
2024/01/18 00:16:10;;;;;;;0.93;0.30;;;0.30;91.90;;;;;;5014312;28;20426;-80
2024/01/18 00:18:36;;;;;;;3.65;0.60;;;0.30;92.00;;;;;;5016327;28;20045;-79
2024/01/18 00:21:03;;;;;;;2.13;0.50;;;0.20;92.10;;;;;;5015739;28;20397;-79
2024/01/18 00:23:29;;;;;;;2.38;0.57;;;0.30;92.20;;;;;;5032344;28;20041;-79
2024/01/18 00:25:54;;;;;;;2.45;0.80;;;0.20;92.30;;;;;;5032100;28;20100;-79
2024/01/18 00:28:20;;;;;;;5.40;1.20;;;0.20;92.30;;;;;;4995615;28;20034;-79
2024/01/18 00:30:46;;;;;;;4.68;1.85;;;0.10;92.30;;;;;;4996138;28;20038;-79
2024/01/18 00:33:11;;;;;;;4.53;1.13;;;0.10;92.40;;;;;;5011096;28;20041;-80
2024/01/18 00:35:37;;;;;;;2.75;1.00;;;0.00;92.50;;;;;;5031712;28;20037;-79
2024/01/18 00:38:03;;;;;;;7.50;1.40;;;0.00;92.50;;;;;;5031704;28;20049;-79
2024/01/18 00:40:29;;;;;;;5.05;1.05;;;0.00;92.40;;;;;;5015859;28;20437;-81
2024/01/18 00:42:55;;;;;;;2.05;0.60;;;-3276.70;92.40;;;;;;5015874;28;20128;-80
2024/01/18 00:45:21;;;;;;;5.65;1.05;;;-3276.60;92.40;;;;;;5031457;28;20125;-79
2024/01/18 00:47:47;;;;;;;3.80;0.68;;;-3276.50;92.40;;;;;;5015173;28;20112;-79
2024/01/18 00:50:12;;;;;;;5.07;0.60;;;-3276.50;92.50;;;;;;5015462;28;20041;-79
2024/01/18 00:52:38;;;;;;;2.92;1.13;;;-3276.40;92.60;;;;;;5031869;28;20064;-80
2024/01/18 00:55:04;;;;;;;3.65;0.80;;;-3276.40;92.60;;;;;;5014903;28;20038;-79
2024/01/18 00:57:30;;;;;;;3.75;0.80;;;-3276.30;92.60;;;;;;5015575;28;20393;-81
2024/01/18 00:59:55;;;;;;;4.57;1.05;;;-3276.30;92.60;;;;;;4998432;28;20041;-80
2024/01/18 01:02:21;;;;;;;4.97;1.15;;;-3276.20;92.60;;;;;;4998856;28;20440;-80
2024/01/18 01:04:47;;;;;;;4.18;1.38;;;-3276.10;92.60;;;;;;5015235;28;20037;-79
2024/01/18 01:07:12;;;;;;;1.55;0.90;;;-3276.10;92.70;;;;;;4998889;28;20046;-78
2024/01/18 01:09:38;;;;;;;4.45;0.90;;;-3276.00;92.70;;;;;;4999238;28;20049;-78
2024/01/18 01:12:04;;;;;;;4.00;0.98;;;-3276.00;92.70;;;;;;5014691;28;20558;-80
2024/01/18 01:14:30;;;;;;;4.40;0.80;;;-3276.00;92.80;;;;;;4998693;28;20037;-80
2024/01/18 01:16:55;;;;;;;2.72;0.73;;;-3276.00;92.80;;;;;;5015076;28;20071;-79
2024/01/18 01:19:21;;;;;;;2.00;0.95;;;-3276.00;92.90;;;;;;4998850;28;20041;-79
2024/01/18 01:21:47;;;;;;;4.80;0.80;;;-3275.90;92.90;;;;;;5015778;28;20033;-79
2024/01/18 01:24:13;;;;;;;7.90;1.88;;;-3275.90;92.90;;;;;;5035096;28;20041;-79
2024/01/18 01:26:38;;;;;;;4.55;1.10;;;-3275.80;92.90;;;;;;5009101;28;20050;-80
2024/01/18 01:29:05;;;;;;;5.28;0.90;;;-3275.80;93.00;;;;;;5026528;28;20080;-80
2024/01/18 01:31:31;;;;;;;2.38;0.70;;;-3275.80;93.10;;;;;;5029182;28;20042;-79
2024/01/18 01:33:56;;;;;;;8.70;2.15;;;-3275.80;92.90;;;;;;4998480;28;20037;-80
2024/01/18 01:36:22;;;;;;;6.63;2.75;;;-3275.70;93.20;;;;;;4983073;28;20128;-80
2024/01/18 01:38:48;;;;;;;5.97;2.38;;;-3275.70;93.10;;;;;;4982573;28;20490;-81
2024/01/18 01:41:14;;;;;;;12.35;3.47;;;-3275.70;93.30;;;;;;5016186;28;20049;-79
2024/01/18 01:44:00;;;;;;;6.55;2.42;;;-3275.70;93.20;;;;;;4999674;28;20117;-80
2024/01/18 01:46:27;;;;;;;5.40;1.83;;;-3275.70;93.10;;;;;;5018138;28;20045;-80
2024/01/18 01:49:00;;;;;;;8.57;1.88;;;-3275.70;93.10;;;;;;5035081;28;20073;-80
2024/01/18 01:51:32;;;;;;;2.08;1.00;;;-3275.70;93.30;;;;;;5018456;28;20389;-80
2024/01/18 01:53:58;;;;;;;4.53;1.40;;;-3275.60;93.50;;;;;;5018620;28;20187;-81
2024/01/18 01:56:24;;;;;;;4.70;0.68;;;-3275.60;93.50;;;;;;5001729;28;20132;-81
2024/01/18 01:58:50;;;;;;;12.15;1.58;;;-3275.70;93.50;;;;;;5018134;28;20044;-80
2024/01/18 02:01:17;;;;;;;6.03;1.45;;;-3275.70;93.70;;;;;;5016504;28;20053;-81
2024/01/18 02:03:42;;;;;;;4.65;0.88;;;-3275.70;93.70;;;;;;5033555;28;20378;-81
2024/01/18 02:06:09;;;;;;;9.40;1.13;;;-3275.70;93.70;;;;;;5001601;28;20044;-82
2024/01/18 02:08:36;;;;;;;5.30;1.30;;;-3275.70;93.70;;;;;;5001424;28;20041;-82
2024/01/18 02:11:03;;;;;;;7.18;2.05;;;-3275.70;93.80;;;;;;5000730;28;20041;-83
2024/01/18 02:13:29;;;;;;;13.98;2.70;;;-3275.70;93.80;;;;;;5033082;28;20046;-80
2024/01/18 02:15:56;;;;;;;7.78;1.90;;;-3275.70;93.80;;;;;;5017022;28;20505;-80
2024/01/18 02:18:21;;;;;;;5.63;1.60;;;-3275.70;93.70;;;;;;5017687;28;20037;-81
2024/01/18 02:20:47;;;;;;;4.85;1.55;;;-3275.60;93.70;;;;;;4985238;28;20387;-80
2024/01/18 02:23:14;;;;;;;6.50;1.15;;;-3275.60;93.80;;;;;;5034320;28;20136;-80
2024/01/18 02:25:39;;;;;;;5.43;1.65;;;-3275.60;93.80;;;;;;5001680;28;20042;-81
2024/01/18 02:28:05;;;;;;;6.72;1.15;;;-3275.50;93.90;;;;;;4981818;28;20038;-80
2024/01/18 02:30:31;;;;;;;7.20;1.10;;;-3275.50;93.80;;;;;;4984757;28;20029;-81
2024/01/18 02:32:56;;;;;;;4.15;1.00;;;-3275.50;93.90;;;;;;5000607;28;20069;-80
2024/01/18 02:35:23;;;;;;;5.60;1.35;;;-3275.50;93.90;;;;;;5016398;28;20041;-80
2024/01/18 02:37:49;;;;;;;4.38;1.13;;;-3275.50;94.00;;;;;;5033472;28;20041;-80
2024/01/18 02:40:14;;;;;;;1.05;0.60;;;-3275.50;94.20;;;;;;5034085;28;20128;-81
2024/01/18 02:42:40;;;;;;;3.53;0.82;;;-3275.50;94.30;;;;;;5017204;28;20101;-80
2024/01/18 02:45:07;;;;;;;4.25;0.90;;;-3275.50;94.40;;;;;;5000381;28;20063;-81
2024/01/18 02:47:34;;;;;;;1.48;1.05;;;-3275.50;94.30;;;;;;5017185;28;20055;-81
2024/01/18 02:50:00;;;;;;;5.72;1.08;;;-3275.50;94.40;;;;;;5017914;28;20048;-81
2024/01/18 02:52:26;;;;;;;5.20;1.02;;;-3275.50;94.40;;;;;;5017085;28;20033;-81
2024/01/18 02:54:51;;;;;;;2.05;0.70;;;-3275.60;94.40;;;;;;5000770;28;20087;-81
2024/01/18 02:57:17;;;;;;;1.35;0.60;;;-3275.50;94.20;;;;;;5016511;28;20052;-80
2024/01/18 02:59:43;;;;;;;2.17;0.60;;;-3275.50;94.20;;;;;;5000479;28;20087;-82
2024/01/18 03:02:08;;;;;;;4.38;1.00;;;-3275.50;94.20;;;;;;4997103;28;20410;-81
2024/01/18 03:04:34;;;;;;;2.22;0.70;;;-3275.50;94.20;;;;;;4981065;28;20041;-81
2024/01/18 03:07:00;;;;;;;2.22;0.40;;;-3275.50;94.20;;;;;;4997158;28;20068;-82
2024/01/18 03:09:26;;;;;;;3.20;0.57;;;-3275.50;93.90;;;;;;4965001;28;20042;-82
2024/01/18 03:11:51;;;;;;;5.60;0.93;;;-3275.50;94.00;;;;;;5013454;28;20122;-82
2024/01/18 03:14:20;;;;;;;3.22;0.63;;;-3275.60;94.00;;;;;;5012295;28;20037;-81
2024/01/18 03:16:48;;;;;;;6.40;0.90;;;-3275.60;94.00;;;;;;4982275;28;20477;-81
2024/01/18 03:19:14;;;;;;;6.70;0.98;;;-3275.70;94.00;;;;;;4996983;28;20069;-81
2024/01/18 03:21:42;;;;;;;4.18;0.70;;;-3275.70;94.10;;;;;;4981885;28;20088;-81
2024/01/18 03:24:08;;;;;;;3.95;1.00;;;-3275.70;94.10;;;;;;5013119;28;20081;-82
2024/01/18 03:26:34;;;;;;;2.95;0.70;;;-3275.80;94.10;;;;;;4980489;28;20042;-81
2024/01/18 03:29:00;;;;;;;5.53;1.30;;;-3275.70;94.00;;;;;;4980772;28;20046;-82
2024/01/18 03:31:25;;;;;;;2.97;0.75;;;-3275.70;94.10;;;;;;5016004;28;20041;-80
2024/01/18 03:33:51;;;;;;;3.17;0.80;;;-3275.70;94.00;;;;;;5000017;28;20468;-81
2024/01/18 03:36:17;;;;;;;4.78;1.20;;;-3275.70;94.00;;;;;;5032827;28;20049;-81
2024/01/18 03:38:43;;;;;;;6.72;0.95;;;-3275.60;94.00;;;;;;5016340;28;20049;-82
2024/01/18 03:41:09;;;;;;;2.58;0.75;;;-3275.60;93.90;;;;;;5016312;28;20048;-81
2024/01/18 03:43:34;;;;;;;5.10;1.08;;;-3275.60;93.90;;;;;;5000085;28;20095;-82
2024/01/18 03:46:01;;;;;;;3.78;1.00;;;-3275.50;93.90;;;;;;4998067;28;20402;-82
2024/01/18 03:48:27;;;;;;;3.15;0.65;;;-3275.50;93.90;;;;;;4980711;28;20386;-80
2024/01/18 03:50:53;;;;;;;2.88;0.82;;;-3275.50;93.90;;;;;;4980596;28;20041;-81
2024/01/18 03:53:18;;;;;;;3.25;1.00;;;-3275.50;94.00;;;;;;4996719;28;20038;-81
2024/01/18 03:55:44;;;;;;;4.85;1.38;;;-3275.40;93.80;;;;;;5029485;28;20128;-81
2024/01/18 03:58:11;;;;;;;6.25;1.38;;;-3275.30;93.90;;;;;;5032123;28;20413;-81
2024/01/18 04:00:38;;;;;;;3.28;1.17;;;-3275.30;93.90;;;;;;5015451;28;20053;-81
2024/01/18 04:03:05;;;;;;;3.20;0.85;;;-3275.30;94.00;;;;;;4999846;28;20041;-82
2024/01/18 04:05:31;;;;;;;4.22;0.90;;;-3275.20;93.90;;;;;;5015871;28;20045;-82
2024/01/18 04:07:57;;;;;;;5.25;0.80;;;-3275.20;93.80;;;;;;5015888;28;20107;-83
2024/01/18 04:10:23;;;;;;;4.07;1.10;;;-3275.10;93.90;;;;;;5015830;28;20041;-81
2024/01/18 04:12:48;;;;;;;4.88;0.90;;;-3275.00;94.10;;;;;;4999344;28;20045;-81
2024/01/18 04:15:14;;;;;;;2.58;0.63;;;-3275.00;93.90;;;;;;5006329;28;20121;-82
2024/01/18 04:17:40;;;;;;;2.15;0.82;;;-3275.00;94.00;;;;;;4996229;28;20060;-82
2024/01/18 04:20:06;;;;;;;3.35;1.08;;;-3275.00;94.10;;;;;;4996390;28;20053;-81
2024/01/18 04:22:33;;;;;;;4.70;0.80;;;-3275.00;94.00;;;;;;4979984;28;20046;-82
2024/01/18 04:24:58;;;;;;;4.25;1.00;;;-3274.90;94.00;;;;;;4980226;28;20049;-82
2024/01/18 04:27:24;;;;;;;4.13;1.00;;;-3274.90;94.00;;;;;;5012208;28;20056;-81
2024/01/18 04:29:50;;;;;;;4.35;0.70;;;-3274.90;94.00;;;;;;4995815;28;20068;-81
2024/01/18 04:32:15;;;;;;;3.13;0.93;;;-3274.80;94.00;;;;;;5029168;28;20041;-82
2024/01/18 04:34:42;;;;;;;4.97;0.88;;;-3274.90;94.00;;;;;;4999153;28;20090;-81
2024/01/18 04:37:08;;;;;;;3.30;0.82;;;-3274.90;94.10;;;;;;4999631;28;20049;-82
2024/01/18 04:39:34;;;;;;;5.28;0.80;;;-3275.00;94.00;;;;;;4999019;28;20048;-81
2024/01/18 04:42:00;;;;;;;4.15;0.80;;;-3275.10;94.10;;;;;;4999156;28;20525;-82
2024/01/18 04:44:25;;;;;;;6.00;0.98;;;-3275.10;94.10;;;;;;5015297;28;20041;-81
2024/01/18 04:46:51;;;;;;;3.80;0.82;;;-3275.20;94.10;;;;;;4982930;28;20044;-82
2024/01/18 04:49:17;;;;;;;2.97;0.70;;;-3275.10;94.10;;;;;;4998649;28;20041;-82
2024/01/18 04:51:42;;;;;;;1.40;0.70;;;-3275.10;93.90;;;;;;4999104;28;20034;-81
2024/01/18 04:54:08;;;;;;;3.08;0.80;;;-3275.10;93.90;;;;;;5015322;28;20125;-82
2024/01/18 04:56:37;;;;;;;4.97;0.82;;;-3275.10;93.90;;;;;;4983829;28;20077;-81
2024/01/18 04:59:04;;;;;;;2.65;0.68;;;-3275.10;93.90;;;;;;4999213;28;20129;-81
2024/01/18 05:01:30;;;;;;;4.15;1.13;;;-3275.10;93.90;;;;;;4999326;28;20077;-82
2024/01/18 05:03:56;;;;;;;4.38;0.75;;;-3275.20;93.90;;;;;;5000953;28;20434;-82
2024/01/18 05:06:22;;;;;;;4.38;1.10;;;-3275.10;93.80;;;;;;4999081;28;20057;-82
2024/01/18 05:08:47;;;;;;;3.55;0.85;;;-3275.10;93.70;;;;;;4999755;28;20105;-82
2024/01/18 05:11:13;;;;;;;2.95;0.82;;;-3275.10;93.80;;;;;;4983382;28;20033;-82
2024/01/18 05:13:39;;;;;;;1.80;0.80;;;-3275.10;93.70;;;;;;4998948;28;20034;-81
2024/01/18 05:16:06;;;;;;;6.32;1.10;;;-3275.10;93.80;;;;;;5017664;28;20068;-82
2024/01/18 05:18:31;;;;;;;6.35;1.17;;;-3275.20;93.80;;;;;;5035031;28;20107;-81
2024/01/18 05:20:57;;;;;;;6.43;1.05;;;-3275.30;93.90;;;;;;5018677;28;20045;-82
2024/01/18 05:23:23;;;;;;;8.65;2.83;;;-3275.30;93.90;;;;;;4982760;28;20115;-80
2024/01/18 05:25:48;;;;;;;5.32;0.77;;;-3275.30;93.90;;;;;;4999042;28;20052;-83
2024/01/18 05:28:14;;;;;;;4.25;1.95;;;-3275.40;93.80;;;;;;4983144;28;20056;-83
2024/01/18 05:30:40;;;;;;;4.25;1.58;;;-3275.50;93.90;;;;;;5013837;28;20049;-82
2024/01/18 05:33:05;;;;;;;1.15;0.47;;;-3275.80;93.70;;;;;;5018776;28;20362;-82
2024/01/18 05:35:31;;;;;;;3.35;0.70;;;-3276.00;93.70;;;;;;5002142;28;20441;-81
2024/01/18 05:37:56;;;;;;;3.53;0.50;;;-3276.10;93.60;;;;;;5017859;28;20033;-80
2024/01/18 05:40:22;;;;;;;4.43;0.90;;;-3276.20;93.60;;;;;;5017240;28;20033;-80
2024/01/18 05:42:48;;;;;;;6.13;0.60;;;-3276.30;93.40;;;;;;5000793;28;20045;-80
2024/01/18 05:45:14;;;;;;;5.43;0.70;;;-3276.40;93.50;;;;;;4982817;28;20069;-79
2024/01/18 05:47:40;;;;;;;8.88;0.90;;;-3276.40;93.30;;;;;;5014600;28;20553;-83
2024/01/18 05:50:07;;;;;;;2.83;0.60;;;-3276.50;93.20;;;;;;5017281;28;20123;-82
2024/01/18 05:52:33;;;;;;;3.83;0.50;;;-3276.50;93.20;;;;;;5000478;28;20038;-83
2024/01/18 05:54:58;;;;;;;4.93;0.70;;;-3276.50;93.20;;;;;;5017217;28;20074;-82
2024/01/18 05:57:25;;;;;;;3.13;0.63;;;-3276.50;93.30;;;;;;5001130;28;20037;-82
2024/01/18 05:59:51;;;;;;;2.88;0.63;;;-3276.50;93.30;;;;;;5017369;28;20044;-83
2024/01/18 06:02:16;;;;;;;3.35;0.47;;;-3276.50;93.30;;;;;;5017171;28;20383;-81
2024/01/18 06:04:42;;;;;;;1.83;1.60;;;-3276.50;93.30;;;;;;4998480;28;20296;-82
2024/01/18 06:07:08;;;;;;;5.20;0.75;;;-3276.40;93.30;;;;;;5016913;28;20041;-83
2024/01/18 06:09:33;;;;;;;6.13;1.20;;;-3276.40;93.30;;;;;;5000228;28;20041;-83
2024/01/18 06:11:59;;;;;;;6.80;1.58;;;-3276.40;93.40;;;;;;4997567;28;20037;-82
2024/01/18 06:14:25;;;;;;;5.40;1.30;;;-3276.30;93.40;;;;;;5000931;28;20439;-83
2024/01/18 06:16:50;;;;;;;3.72;0.90;;;-3276.20;93.40;;;;;;4999485;28;20072;-83
2024/01/18 06:19:16;;;;;;;6.05;0.90;;;-3276.20;93.40;;;;;;5012013;28;20099;-81
2024/01/18 06:21:42;;;;;;;3.10;0.80;;;-3276.10;93.50;;;;;;5017668;28;20041;-81
2024/01/18 06:24:08;;;;;;;4.78;0.77;;;-3276.10;93.50;;;;;;5017201;28;20514;-82
2024/01/18 06:26:34;;;;;;;6.35;1.10;;;-3276.00;93.60;;;;;;5033317;28;20492;-83
2024/01/18 06:29:00;;;;;;;4.50;1.00;;;-3276.00;93.70;;;;;;5017054;28;20061;-84
2024/01/18 06:31:27;;;;;;;4.97;1.30;;;-3276.00;93.60;;;;;;5033761;28;20037;-82
2024/01/18 06:33:59;;;;;;;6.22;1.55;;;-3275.90;93.60;;;;;;5017049;28;20136;-81
2024/01/18 06:36:25;;;;;;;5.32;1.48;;;-3275.90;93.60;;;;;;5001227;28;20498;-82
2024/01/18 06:38:50;;;;;;;7.10;1.55;;;-3275.80;93.80;;;;;;5001021;28;20047;-83
2024/01/18 06:41:17;;;;;;;7.20;1.08;;;-3275.80;93.80;;;;;;5017123;28;20037;-83
2024/01/18 06:43:43;;;;;;;2.55;0.60;;;-3275.80;93.90;;;;;;5017397;28;20041;-82
2024/01/18 06:46:18;;;;;;;3.83;0.90;;;-3275.80;93.90;;;;;;5017110;28;20573;-83
2024/01/18 06:48:53;;;;;;;4.50;0.70;;;-3275.80;94.00;;;;;;4992572;28;20045;-83
2024/01/18 06:51:22;;;;;;;8.30;1.40;;;-3275.80;94.00;;;;;;4995961;28;20405;-81
2024/01/18 06:53:47;;;;;;;4.78;1.20;;;-3275.70;94.00;;;;;;4984332;28;20482;-82
2024/01/18 06:56:13;;;;;;;4.82;1.23;;;-3275.70;94.10;;;;;;5015919;28;20048;-81
2024/01/18 06:58:40;;;;;;;4.95;1.50;;;-3275.70;94.10;;;;;;5016928;28;20080;-81
2024/01/18 07:01:06;;;;;;;6.05;1.60;;;-3275.70;94.00;;;;;;5016648;28;20053;-83
2024/01/18 07:03:35;;;;;;;6.85;1.35;;;-3275.60;94.10;;;;;;5033345;28;20049;-82
2024/01/18 07:06:05;;;;;;;7.72;1.73;;;-3275.60;94.10;;;;;;5016983;28;20045;-83
2024/01/18 07:08:31;;;;;;;8.23;1.92;;;-3275.60;94.10;;;;;;5033457;28;20048;-82
2024/01/18 07:10:57;;;;;;;8.73;2.67;;;-3275.60;94.10;;;;;;5000524;28;20037;-82
2024/01/18 07:13:23;;;;;;;9.02;3.42;;;-3275.60;94.00;;;;;;5016884;28;20041;-81
2024/01/18 07:15:49;;;;;;;8.02;3.55;;;-3275.60;94.00;;;;;;5016798;28;20543;-82
2024/01/18 07:18:14;;;;;;;5.35;2.40;;;-3275.50;94.00;;;;;;5016838;28;20144;-82
2024/01/18 07:20:40;;;;;;;8.05;3.97;;;-3275.50;94.10;;;;;;5015950;28;20409;-82
2024/01/18 07:23:06;;;;;;;7.82;2.55;;;-3275.50;94.10;;;;;;5000201;28;20041;-82
2024/01/18 07:25:32;;;;;;;6.35;2.03;;;-3275.50;94.10;;;;;;5000079;28;20049;-82
2024/01/18 07:27:58;;;;;;;8.07;2.13;;;-3275.40;94.00;;;;;;5016819;28;20033;-83
2024/01/18 07:30:23;;;;;;;4.63;1.67;;;-3275.40;94.00;;;;;;5000371;28;20501;-83
2024/01/18 07:32:49;;;;;;;3.97;1.73;;;-3275.40;94.10;;;;;;4983759;28;20505;-81
2024/01/18 07:35:15;;;;;;;4.10;1.23;;;-3275.30;94.10;;;;;;5015889;28;20107;-84
2024/01/18 07:37:41;;;;;;;4.85;1.67;;;-3275.40;94.20;;;;;;5016141;28;20052;-81
2024/01/18 07:40:07;;;;;;;5.50;1.50;;;-3275.50;94.20;;;;;;5032813;28;20038;-82
2024/01/18 07:42:33;;;;;;;2.97;1.90;;;-3275.60;94.10;;;;;;5016403;28;20124;-82
2024/01/18 07:44:59;;;;;;;3.13;1.45;;;-3275.60;94.00;;;;;;5016240;28;20550;-84
2024/01/18 07:47:25;;;;;;;8.70;1.65;;;-3275.80;93.90;;;;;;5015734;28;20045;-81
2024/01/18 07:49:51;;;;;;;5.82;1.05;;;-3275.80;93.90;;;;;;5015590;28;20128;-82
2024/01/18 07:52:18;;;;;;;4.35;0.98;;;-3275.90;93.90;;;;;;5020523;28;20077;-80
2024/01/18 07:54:44;;;;;;;5.43;1.95;;;-3276.00;93.80;;;;;;5027913;28;20038;-82
2024/01/18 07:57:10;;;;;;;8.27;1.73;;;-3276.10;93.60;;;;;;5030787;28;20056;-82
2024/01/18 07:59:36;;;;;;;5.15;1.30;;;-3276.10;93.60;;;;;;5012642;28;20037;-82
2024/01/18 08:02:02;;;;;;;5.13;1.27;;;-3276.10;93.60;;;;;;4987268;28;20485;-81
2024/01/18 08:04:29;;;;;;;4.70;1.67;;;-3276.10;93.60;;;;;;4992279;28;20111;-82
2024/01/18 08:06:55;;;;;;;6.78;2.30;;;-3276.10;93.50;;;;;;5030158;28;20408;-81
2024/01/18 08:09:21;;;;;;;7.82;2.65;;;-3276.10;93.60;;;;;;5029318;28;20498;-81
2024/01/18 08:11:47;;;;;;;7.95;3.90;;;-3276.20;93.70;;;;;;4984894;28;20077;-81
2024/01/18 08:14:13;;;;;;;8.45;4.50;;;-3276.20;93.70;;;;;;5011325;28;20053;-82
2024/01/18 08:16:39;;;;;;;11.43;2.15;;;-3276.30;93.60;;;;;;5002951;28;20040;-81
2024/01/18 08:19:05;;;;;;;6.22;1.42;;;-3276.30;93.70;;;;;;4994043;28;20103;-82
2024/01/18 08:21:31;;;;;;;2.25;1.27;;;-3276.40;93.80;;;;;;5008948;28;20513;-82
2024/01/18 08:23:59;;;;;;;4.15;1.50;;;-3276.60;93.70;;;;;;5010874;28;20640;-81
2024/01/18 08:26:25;;;;;;;4.57;0.73;;;-3276.60;93.70;;;;;;5026417;28;20128;-81
2024/01/18 08:28:51;;;;;;;2.97;1.25;;;0.00;93.70;;;;;;5011291;28;20374;-81
2024/01/18 08:31:16;;;;;;;1.85;0.90;;;0.00;93.70;;;;;;5013305;28;20439;-81
2024/01/18 08:33:42;;;;;;;2.13;0.60;;;0.10;93.70;;;;;;5034037;28;20037;-82
2024/01/18 08:36:08;;;;;;;2.05;0.45;;;0.20;93.80;;;;;;5017623;28;20057;-81
2024/01/18 08:38:34;;;;;;;1.50;0.50;;;0.30;93.80;;;;;;4996183;28;20042;-81
2024/01/18 08:41:00;;;;;;;8.23;0.80;;;0.40;93.80;;;;;;5016872;28;20053;-81
2024/01/18 08:43:26;;;;;;;2.60;0.40;;;0.60;93.90;;;;;;5017753;28;20060;-81
2024/01/18 08:45:55;;;;;;;0.70;0.50;;;0.70;93.90;;;;;;5034169;28;20051;-82
2024/01/18 08:48:21;;;;;;;4.68;0.50;;;0.80;93.90;;;;;;5001462;28;20073;-80
2024/01/18 08:50:46;;;;;;;4.45;1.08;;;1.00;94.00;;;;;;4994326;28;20069;-81
2024/01/18 08:53:12;;;;;;;2.83;0.60;;;1.00;93.90;;;;;;5029223;28;20033;-82
2024/01/18 08:55:38;;;;;;;2.53;0.50;;;1.10;94.10;;;;;;5016643;28;20076;-82
2024/01/18 08:58:06;;;;;;;4.82;0.77;;;1.10;94.00;;;;;;5017171;28;20095;-82
2024/01/18 09:00:32;;;;;;;1.45;0.60;;;1.00;94.10;;;;;;5028775;28;20058;-82
2024/01/18 09:02:58;;;;;;;4.25;0.68;;;0.90;94.00;;;;;;5008077;28;20107;-83
2024/01/18 09:05:26;;;;;;;2.17;0.80;;;0.90;94.20;;;;;;5032263;28;20034;-82
2024/01/18 09:07:52;;;;;;;2.83;1.13;;;0.90;94.10;;;;;;5016685;28;20037;-82
2024/01/18 09:10:19;;;;;;;6.22;1.23;;;0.80;94.20;;;;;;4994297;28;20104;-82
2024/01/18 09:12:45;;;;;;;4.28;1.77;;;0.80;94.30;;;;;;5016967;28;20444;-84
2024/01/18 09:15:12;;;;;;;6.05;0.95;;;0.70;94.20;;;;;;5016564;28;20034;-82
2024/01/18 09:17:37;;;;;;;4.18;1.10;;;0.70;94.20;;;;;;5015875;28;20049;-84
2024/01/18 09:20:04;;;;;;;3.80;0.90;;;0.60;94.20;;;;;;5016329;28;20047;-84
2024/01/18 09:22:29;;;;;;;3.38;1.02;;;0.70;94.40;;;;;;5000182;28;20100;-84
2024/01/18 09:24:55;;;;;;;3.50;1.20;;;0.60;94.30;;;;;;4995861;28;20070;-82
2024/01/18 09:27:22;;;;;;;2.92;0.73;;;0.60;94.40;;;;;;5006068;28;20049;-83
2024/01/18 09:29:48;;;;;;;2.53;0.70;;;0.60;94.40;;;;;;4999303;28;20150;-83
2024/01/18 09:32:15;;;;;;;3.85;0.82;;;0.70;94.50;;;;;;5032532;28;20041;-82
2024/01/18 09:34:41;;;;;;;3.67;0.90;;;0.70;94.50;;;;;;5008244;28;20058;-82
2024/01/18 09:37:07;;;;;;;2.50;0.60;;;0.70;94.50;;;;;;5016511;28;21357;-82
2024/01/18 09:39:32;;;;;;;2.38;0.90;;;0.80;94.50;;;;;;5000049;28;20128;-84
2024/01/18 09:41:58;;;;;;;2.15;0.85;;;0.90;94.40;;;;;;5032197;28;20057;-83
2024/01/18 09:44:32;;;;;;;5.43;0.77;;;0.90;94.20;;;;;;5000582;28;20033;-83
2024/01/18 09:47:01;;;;;;;3.10;0.70;;;0.90;94.10;;;;;;5013720;28;20073;-82
2024/01/18 09:49:30;;;;;;;4.32;0.70;;;1.00;94.10;;;;;;5032462;28;20045;-82
2024/01/18 09:51:58;;;;;;;3.25;0.90;;;1.10;94.00;;;;;;5015323;28;20037;-82
2024/01/18 09:54:24;;;;;;;2.88;0.60;;;1.10;93.80;;;;;;5032595;28;20048;-82
2024/01/18 09:56:53;;;;;;;3.47;1.10;;;1.20;93.60;;;;;;5016300;28;20164;-82
2024/01/18 09:59:21;;;;;;;1.02;0.52;;;1.30;93.60;;;;;;5008574;28;20041;-83
2024/01/18 10:01:47;;;;;;;2.85;0.90;;;1.50;93.40;;;;;;5027212;28;20449;-84
2024/01/18 10:04:15;;;;;;;3.50;1.15;;;1.60;93.20;;;;;;5015737;28;20079;-84
2024/01/18 10:06:41;;;;;;;20.15;8.40;;;1.60;93.20;;;;;;5014672;28;20486;-84
2024/01/18 10:09:10;;;;;;;374.92;181.23;;;1.70;93.20;;;;;;5014693;28;20540;-83
2024/01/18 10:11:37;;;;;;;24.73;13.20;;;1.80;93.10;;;;;;5037789;28;20116;-83
2024/01/18 10:14:04;;;;;;;25.55;22.85;;;1.90;93.20;;;;;;5027200;28;20138;-83
2024/01/18 10:16:32;;;;;;;13.00;11.57;;;1.90;93.00;;;;;;5015092;28;20505;-84
2024/01/18 10:19:03;;;;;;;21.42;18.50;;;1.80;93.00;;;;;;5015071;28;20056;-85
2024/01/18 10:21:30;;;;;;;6.95;6.03;;;1.70;93.00;;;;;;5024533;28;20409;-84
2024/01/18 10:23:57;;;;;;;58.75;39.97;;;1.60;93.10;;;;;;5026621;28;20498;-84
2024/01/18 10:26:27;;;;;;;14.55;8.40;;;1.60;93.10;;;;;;5015245;28;20410;-83
2024/01/18 10:28:53;;;;;;;9.75;4.47;;;1.60;93.10;;;;;;5001022;28;20096;-84
2024/01/18 10:31:19;;;;;;;7.50;3.30;;;1.50;93.20;;;;;;5016896;28;20585;-84
2024/01/18 10:33:48;;;;;;;8.20;5.15;;;1.50;93.30;;;;;;5017271;28;20120;-84
2024/01/18 10:36:13;;;;;;;7.93;6.68;;;1.40;93.30;;;;;;5001098;28;20037;-84
2024/01/18 10:38:41;;;;;;;8.00;5.63;;;1.40;93.30;;;;;;5001112;28;20041;-84
2024/01/18 10:41:10;;;;;;;5.70;3.67;;;1.40;93.40;;;;;;5001123;28;20038;-84
2024/01/18 10:43:37;;;;;;;5.10;2.95;;;1.50;93.50;;;;;;5017662;28;20402;-84
2024/01/18 10:46:04;;;;;;;4.05;2.65;;;1.50;93.60;;;;;;5015154;28;20041;-83
2024/01/18 10:48:31;;;;;;;24.33;18.50;;;1.70;93.60;;;;;;5033405;28;20037;-84
2024/01/18 10:50:58;;;;;;;18.10;15.15;;;1.90;93.70;;;;;;5016235;28;20048;-83
2024/01/18 10:53:25;;;;;;;11.13;10.25;;;2.20;93.90;;;;;;5032017;28;20037;-83
2024/01/18 10:55:52;;;;;;;11.30;9.23;;;2.40;93.80;;;;;;5065808;28;20429;-84
2024/01/18 10:58:18;;;;;;;6.00;5.03;;;2.30;93.60;;;;;;5066529;28;20390;-82
2024/01/18 11:00:46;;;;;;;6.65;1.83;;;2.30;93.50;;;;;;5034542;28;20056;-81
2024/01/18 11:03:16;;;;;;;4.75;1.13;;;2.20;93.40;;;;;;5036249;28;20041;-82
2024/01/18 11:05:45;;;;;;;4.05;0.63;;;2.00;93.40;;;;;;5052737;28;20041;-82
2024/01/18 11:08:15;;;;;;;2.30;1.10;;;1.90;93.30;;;;;;5052823;28;20040;-82
2024/01/18 11:10:42;;;;;;;3.53;0.95;;;1.80;93.20;;;;;;5036185;28;20044;-83
2024/01/18 11:13:09;;;;;;;6.15;2.25;;;1.80;93.20;;;;;;5052701;28;20126;-82
2024/01/18 11:15:41;;;;;;;15.90;8.57;;;1.70;93.30;;;;;;5021471;28;20516;-82
2024/01/18 11:18:14;;;;;;;17.40;8.27;;;1.70;93.30;;;;;;5032880;28;20045;-82
2024/01/18 11:20:58;;;;;;;14.15;7.00;;;1.70;93.30;;;;;;5033009;28;20393;-82
2024/01/18 11:23:34;;;;;;;9.45;2.35;;;1.70;93.40;;;;;;5032469;28;20092;-81
2024/01/18 11:26:01;;;;;;;5.88;1.10;;;1.70;93.50;;;;;;5032672;28;20402;-82
2024/01/18 11:28:27;;;;;;;3.65;1.02;;;1.70;93.50;;;;;;5016215;28;20037;-82
2024/01/18 11:30:53;;;;;;;6.03;0.60;;;1.70;93.50;;;;;;5016415;28;20044;-82
2024/01/18 11:33:20;;;;;;;2.80;0.60;;;1.70;93.50;;;;;;5016370;28;20041;-81
2024/01/18 11:35:48;;;;;;;4.78;1.00;;;1.80;93.60;;;;;;5032231;28;20142;-83
2024/01/18 11:38:21;;;;;;;4.68;0.80;;;2.00;93.70;;;;;;5016305;28;20069;-81
2024/01/18 11:40:53;;;;;;;4.95;1.08;;;2.10;93.70;;;;;;5032713;28;20049;-82
2024/01/18 11:43:19;;;;;;;7.15;1.73;;;2.30;93.70;;;;;;5016246;28;20159;-82
2024/01/18 11:45:51;;;;;;;3.97;1.42;;;2.50;93.60;;;;;;5016035;28;20120;-82
2024/01/18 11:48:20;;;;;;;4.20;1.05;;;2.70;93.50;;;;;;5016797;28;20045;-82
2024/01/18 11:50:46;;;;;;;6.57;1.40;;;2.80;93.40;;;;;;5000273;28;20041;-81
2024/01/18 11:53:14;;;;;;;4.60;1.50;;;3.00;93.30;;;;;;5015236;28;20045;-81
2024/01/18 11:55:45;;;;;;;4.13;1.23;;;3.10;93.20;;;;;;5032497;28;20481;-82
2024/01/18 11:58:11;;;;;;;6.78;1.30;;;3.30;93.10;;;;;;5016420;28;20124;-82
2024/01/18 12:00:37;;;;;;;5.15;1.73;;;3.50;93.00;;;;;;5016274;28;20180;-82
2024/01/18 12:03:04;;;;;;;4.32;1.73;;;3.70;92.80;;;;;;5016134;28;20049;-82
2024/01/18 12:05:29;;;;;;;6.03;1.70;;;3.80;92.50;;;;;;5020269;28;20414;-82
2024/01/18 12:07:56;;;;;;;5.30;1.70;;;4.00;92.40;;;;;;4979963;28;20042;-82
2024/01/18 12:10:23;;;;;;;5.72;1.70;;;4.10;92.20;;;;;;4996186;28;20487;-83
2024/01/18 12:12:50;;;;;;;4.45;1.00;;;4.30;91.70;;;;;;4996101;28;20042;-82
2024/01/18 12:15:19;;;;;;;8.18;1.30;;;4.50;91.60;;;;;;5000771;28;20107;-81
2024/01/18 12:17:46;;;;;;;7.40;1.40;;;4.70;91.00;;;;;;5011165;28;20204;-83
2024/01/18 12:20:15;;;;;;;51.75;26.50;;;5.00;90.00;;;;;;4996048;28;20053;-80
2024/01/18 12:22:43;;;;;;;118.03;56.38;;;5.20;90.10;;;;;;5022409;28;20521;-80
2024/01/18 12:25:09;;;;;;;29.45;12.90;;;5.40;89.20;;;;;;5015955;28;20056;-80
2024/01/18 12:27:35;;;;;;;14.65;4.55;;;5.60;90.00;;;;;;5015521;28;20046;-80